sensor_id;sensor_type;location;lat;lon;timestamp;pressure;altitude;pressure_sealevel;temperature;humidity
26839;BME280;40088;51.214;6.786;2022-08-20T00:06:22;101236.47;;;22.57;65.92
26839;BME280;40088;51.214;6.786;2022-08-20T00:16:24;101227.31;;;22.56;66.17
26839;BME280;40088;51.214;6.786;2022-08-20T00:26:25;101231.78;;;22.57;66.30
26839;BME280;40088;51.214;6.786;2022-08-20T00:36:26;101235.63;;;22.56;66.55
26839;BME280;40088;51.214;6.786;2022-08-20T00:46:27;101230.31;;;22.55;66.70
26839;BME280;40088;51.214;6.786;2022-08-20T00:56:29;101223.69;;;22.56;66.45
26839;BME280;40088;51.214;6.786;2022-08-20T01:06:31;101213.66;;;22.55;66.83
26839;BME280;40088;51.214;6.786;2022-08-20T01:16:31;101208.09;;;22.55;66.87
26839;BME280;40088;51.214;6.786;2022-08-20T01:26:40;101229.22;;;22.56;66.74
26839;BME280;40088;51.214;6.786;2022-08-20T01:36:51;101229.22;;;22.56;66.96
26839;BME280;40088;51.214;6.786;2022-08-20T01:46:52;101224.75;;;22.55;66.82
26839;BME280;40088;51.214;6.786;2022-08-20T01:56:59;101241.19;;;22.56;66.84
26839;BME280;40088;51.214;6.786;2022-08-20T02:07:03;101247.59;;;22.57;66.86
26839;BME280;40088;51.214;6.786;2022-08-20T02:17:04;101236.72;;;22.55;67.12
26839;BME280;40088;51.214;6.786;2022-08-20T02:27:06;101238.66;;;22.55;66.79
26839;BME280;40088;51.214;6.786;2022-08-20T02:37:06;101237.56;;;22.56;66.76
26839;BME280;40088;51.214;6.786;2022-08-20T02:47:07;101243.13;;;22.56;67.07
26839;BME280;40088;51.214;6.786;2022-08-20T02:57:14;101243.13;;;22.56;66.78
26839;BME280;40088;51.214;6.786;2022-08-20T03:07:15;101230.31;;;22.55;66.87
26839;BME280;40088;51.214;6.786;2022-08-20T03:17:15;101227.53;;;22.55;66.56
26839;BME280;40088;51.214;6.786;2022-08-20T03:27:16;101235.88;;;22.55;66.84
26839;BME280;40088;51.214;6.786;2022-08-20T03:37:16;101221.97;;;22.55;66.94
26839;BME280;40088;51.214;6.786;2022-08-20T03:47:16;101207.25;;;22.54;66.85
26839;BME280;40088;51.214;6.786;2022-08-20T03:57:17;101204.47;;;22.54;66.96
26839;BME280;40088;51.214;6.786;2022-08-20T04:07:20;101223.91;;;22.54;66.87
26839;BME280;40088;51.214;6.786;2022-08-20T04:17:24;101240.56;;;22.54;67.03
26839;BME280;40088;51.214;6.786;2022-08-20T04:27:25;101249.94;;;22.53;67.01
26839;BME280;40088;51.214;6.786;2022-08-20T04:37:25;101257.25;;;22.54;67.04
26839;BME280;40088;51.214;6.786;2022-08-20T04:47:25;101260.00;;;22.54;66.96
26839;BME280;40088;51.214;6.786;2022-08-20T04:57:26;101261.94;;;22.54;66.83
26839;BME280;40088;51.214;6.786;2022-08-20T05:07:27;101270.28;;;22.54;66.98
26839;BME280;40088;51.214;6.786;2022-08-20T05:17:27;101256.38;;;22.54;67.13
26839;BME280;40088;51.214;6.786;2022-08-20T05:27:28;101276.69;;;22.54;66.92
26839;BME280;40088;51.214;6.786;2022-08-20T05:37:29;101289.72;;;22.54;67.02
26839;BME280;40088;51.214;6.786;2022-08-20T05:47:30;101294.19;;;22.55;67.17
26839;BME280;40088;51.214;6.786;2022-08-20T05:57:30;101308.28;;;22.53;67.19
26839;BME280;40088;51.214;6.786;2022-08-20T06:07:30;101302.94;;;22.52;67.31
26839;BME280;40088;51.214;6.786;2022-08-20T06:17:31;101298.25;;;22.52;67.34
26839;BME280;40088;51.214;6.786;2022-08-20T06:27:36;101310.22;;;22.53;67.14
26839;BME280;40088;51.214;6.786;2022-08-20T06:37:38;101312.97;;;22.53;67.41
26839;BME280;40088;51.214;6.786;2022-08-20T06:47:41;101314.06;;;22.52;67.33
26839;BME280;40088;51.214;6.786;2022-08-20T06:57:43;101327.94;;;22.52;67.50
26839;BME280;40088;51.214;6.786;2022-08-20T07:07:45;101332.66;;;22.51;67.27
26839;BME280;40088;51.214;6.786;2022-08-20T07:17:58;101334.59;;;22.51;67.41
26839;BME280;40088;51.214;6.786;2022-08-20T07:28:06;101339.28;;;22.50;67.18
26839;BME280;40088;51.214;6.786;2022-08-20T07:38:13;101354.03;;;22.51;66.97
26839;BME280;40088;51.214;6.786;2022-08-20T07:48:17;101379.03;;;22.51;67.33
26839;BME280;40088;51.214;6.786;2022-08-20T07:58:19;101380.94;;;22.50;67.21
26839;BME280;40088;51.214;6.786;2022-08-20T08:08:24;101381.19;;;22.49;67.19
26839;BME280;40088;51.214;6.786;2022-08-20T08:18:30;101385.00;;;22.48;67.07
26839;BME280;40088;51.214;6.786;2022-08-20T08:28:32;101388.63;;;22.48;66.85
26839;BME280;40088;51.214;6.786;2022-08-20T08:38:34;101389.69;;;22.47;66.75
26839;BME280;40088;51.214;6.786;2022-08-20T08:48:38;101396.97;;;22.48;66.47
26839;BME280;40088;51.214;6.786;2022-08-20T08:58:42;101412.78;;;22.48;66.23
26839;BME280;40088;51.214;6.786;2022-08-20T09:08:50;101417.47;;;22.47;66.50
26839;BME280;40088;51.214;6.786;2022-08-20T09:18:52;101436.06;;;22.47;66.39
26839;BME280;40088;51.214;6.786;2022-08-20T09:28:52;101436.06;;;22.47;66.22
26839;BME280;40088;51.214;6.786;2022-08-20T09:38:52;101439.91;;;22.46;66.15
26839;BME280;40088;51.214;6.786;2022-08-20T09:48:53;101450.19;;;22.45;66.23
26839;BME280;40088;51.214;6.786;2022-08-20T09:58:54;101446.53;;;22.45;66.31
26839;BME280;40088;51.214;6.786;2022-08-20T10:08:54;101445.47;;;22.46;66.06
26839;BME280;40088;51.214;6.786;2022-08-20T10:18:55;101461.06;;;22.47;65.80
26839;BME280;40088;51.214;6.786;2022-08-20T10:28:56;101455.72;;;22.45;66.09
26839;BME280;40088;51.214;6.786;2022-08-20T10:38:56;101459.34;;;22.46;66.10
26839;BME280;40088;51.214;6.786;2022-08-20T10:48:56;101464.91;;;22.46;65.81
26839;BME280;40088;51.214;6.786;2022-08-20T10:58:56;101469.63;;;22.45;66.01
26839;BME280;40088;51.214;6.786;2022-08-20T11:08:57;101463.22;;;22.45;66.29
26839;BME280;40088;51.214;6.786;2022-08-20T11:18:57;101470.69;;;22.44;65.85
26839;BME280;40088;51.214;6.786;2022-08-20T11:28:57;101461.50;;;22.44;66.04
26839;BME280;40088;51.214;6.786;2022-08-20T11:38:58;101474.31;;;22.45;65.98
26839;BME280;40088;51.214;6.786;2022-08-20T11:48:58;101468.75;;;22.45;65.71
26839;BME280;40088;51.214;6.786;2022-08-20T11:58:59;101457.66;;;22.45;65.92
26839;BME280;40088;51.214;6.786;2022-08-20T12:08:59;101472.41;;;22.45;65.64
26839;BME280;40088;51.214;6.786;2022-08-20T12:18:59;101462.38;;;22.44;65.92
26839;BME280;40088;51.214;6.786;2022-08-20T12:29:00;101450.19;;;22.45;65.94
26839;BME280;40088;51.214;6.786;2022-08-20T12:39:00;101457.66;;;22.45;65.69
26839;BME280;40088;51.214;6.786;2022-08-20T12:49:00;101441.00;;;22.45;65.43
26839;BME280;40088;51.214;6.786;2022-08-20T12:59:00;101430.75;;;22.45;65.85
26839;BME280;40088;51.214;6.786;2022-08-20T13:09:01;101419.63;;;22.45;65.60
26839;BME280;40088;51.214;6.786;2022-08-20T13:19:01;101420.47;;;22.46;65.70
26839;BME280;40088;51.214;6.786;2022-08-20T13:29:01;101413.84;;;22.47;65.54
26839;BME280;40088;51.214;6.786;2022-08-20T13:39:05;101404.66;;;22.46;65.68
26839;BME280;40088;51.214;6.786;2022-08-20T13:49:06;101409.38;;;22.46;65.82
26839;BME280;40088;51.214;6.786;2022-08-20T13:59:06;101404.66;;;22.46;65.63
26839;BME280;40088;51.214;6.786;2022-08-20T14:09:06;101393.56;;;22.46;65.66
26839;BME280;40088;51.214;6.786;2022-08-20T14:19:07;101394.63;;;22.45;65.71
26839;BME280;40088;51.214;6.786;2022-08-20T14:29:13;101398.25;;;22.46;65.66
26839;BME280;40088;51.214;6.786;2022-08-20T14:39:18;101385.22;;;22.46;65.29
26839;BME280;40088;51.214;6.786;2022-08-20T14:49:18;101389.94;;;22.46;65.45
26839;BME280;40088;51.214;6.786;2022-08-20T14:59:19;101385.22;;;22.46;65.55
26839;BME280;40088;51.214;6.786;2022-08-20T15:09:19;101389.94;;;22.46;65.09
26839;BME280;40088;51.214;6.786;2022-08-20T15:19:20;101384.16;;;22.47;65.57
26839;BME280;40088;51.214;6.786;2022-08-20T15:29:20;101386.94;;;22.47;65.63
26839;BME280;40088;51.214;6.786;2022-08-20T15:39:20;101387.16;;;22.46;65.03
26839;BME280;40088;51.214;6.786;2022-08-20T15:49:22;101388.00;;;22.46;65.10
26839;BME280;40088;51.214;6.786;2022-08-20T15:59:44;101390.78;;;22.46;65.01
26839;BME280;40088;51.214;6.786;2022-08-20T16:20:23;101380.53;;;22.47;65.48
26839;BME280;40088;51.214;6.786;2022-08-20T16:30:42;101374.97;;;22.47;65.30
26839;BME280;40088;51.214;6.786;2022-08-20T16:40:46;101370.50;;;22.46;65.14
26839;BME280;40088;51.214;6.786;2022-08-20T16:50:57;101366.63;;;22.47;65.31
26839;BME280;40088;51.214;6.786;2022-08-20T17:11:10;101373.03;;;22.47;64.89
26839;BME280;40088;51.214;6.786;2022-08-20T17:21:17;101384.38;;;22.46;65.11
26839;BME280;40088;51.214;6.786;2022-08-20T17:31:35;101381.59;;;22.46;65.15
26839;BME280;40088;51.214;6.786;2022-08-20T17:41:35;101390.78;;;22.46;65.06
26839;BME280;40088;51.214;6.786;2022-08-20T17:51:38;101404.66;;;22.46;65.02
26839;BME280;40088;51.214;6.786;2022-08-20T18:01:40;101401.03;;;22.46;65.07
26839;BME280;40088;51.214;6.786;2022-08-20T18:22:05;101411.06;;;22.47;65.11
26839;BME280;40088;51.214;6.786;2022-08-20T18:42:32;101411.06;;;22.47;65.08
26839;BME280;40088;51.214;6.786;2022-08-20T18:52:35;101424.09;;;22.46;65.07
26839;BME280;40088;51.214;6.786;2022-08-20T19:02:50;101426.03;;;22.46;65.18
26839;BME280;40088;51.214;6.786;2022-08-20T19:23:19;101421.31;;;22.46;65.00
26839;BME280;40088;51.214;6.786;2022-08-20T19:33:30;101426.03;;;22.46;64.82
26839;BME280;40088;51.214;6.786;2022-08-20T19:43:40;101436.06;;;22.47;64.93
26839;BME280;40088;51.214;6.786;2022-08-20T19:53:44;101448.25;;;22.46;65.18
26839;BME280;40088;51.214;6.786;2022-08-20T20:04:01;101459.34;;;22.46;64.96
26839;BME280;40088;51.214;6.786;2022-08-20T20:14:05;101458.72;;;22.44;65.01
26839;BME280;40088;51.214;6.786;2022-08-20T20:24:06;101455.97;;;22.44;65.04
26839;BME280;40088;51.214;6.786;2022-08-20T20:34:10;101457.66;;;22.45;64.98
26839;BME280;40088;51.214;6.786;2022-08-20T20:44:27;101454.88;;;22.45;65.17
26839;BME280;40088;51.214;6.786;2022-08-20T21:04:34;101452.09;;;22.45;65.16
26839;BME280;40088;51.214;6.786;2022-08-20T21:14:35;101454.22;;;22.43;64.76
26839;BME280;40088;51.214;6.786;2022-08-20T21:24:35;101447.81;;;22.42;64.60
26839;BME280;40088;51.214;6.786;2022-08-20T21:34:35;101459.78;;;22.43;64.48
26839;BME280;40088;51.214;6.786;2022-08-20T21:44:36;101460.84;;;22.42;64.77
26839;BME280;40088;51.214;6.786;2022-08-20T21:54:37;101463.63;;;22.42;64.37
26839;BME280;40088;51.214;6.786;2022-08-20T22:04:37;101460.84;;;22.42;64.86
26839;BME280;40088;51.214;6.786;2022-08-20T22:14:37;101465.34;;;22.43;64.58
26839;BME280;40088;51.214;6.786;2022-08-20T22:24:38;101452.53;;;22.42;64.76
26839;BME280;40088;51.214;6.786;2022-08-20T22:34:38;101460.00;;;22.41;64.57
26839;BME280;40088;51.214;6.786;2022-08-20T22:44:39;101461.94;;;22.41;64.62
26839;BME280;40088;51.214;6.786;2022-08-20T22:54:39;101460.84;;;22.42;64.53
26839;BME280;40088;51.214;6.786;2022-08-20T23:04:40;101461.94;;;22.41;64.43
26839;BME280;40088;51.214;6.786;2022-08-20T23:14:40;101458.31;;;22.40;64.57
26839;BME280;40088;51.214;6.786;2022-08-20T23:24:40;101455.53;;;22.40;64.27
26839;BME280;40088;51.214;6.786;2022-08-20T23:34:41;101455.53;;;22.40;64.41
26839;BME280;40088;51.214;6.786;2022-08-20T23:44:42;101446.34;;;22.40;64.34
26839;BME280;40088;51.214;6.786;2022-08-20T23:54:42;101434.38;;;22.39;64.18
